Time;durP1;ratioP1;P1;durP2;ratioP2;P2;SDS_P1;SDS_P2;PMS_P1;PMS_P2;Temp;Humidity;BMP_temperature;BMP_pressure;BME280_temperature;BME280_humidity;BME280_pressure;Samples;Min_cycle;Max_cycle;Signal;HPM_P1;HPM_P2
2022/09/05 00:02:55;;;;;;;;;46.80;40.00;;;;;22.74;46.37;99608.72;6249137;27;97494;-57
2022/09/05 00:06:06;;;;;;;;;45.00;39.00;;;;;22.73;46.55;99612.56;6252400;27;98612;-58
2022/09/05 00:09:18;;;;;;;;;42.00;36.00;;;;;22.70;46.72;99608.47;6247352;27;97007;-58
2022/09/05 00:12:23;;;;;;;;;42.00;36.20;;;;;22.67;46.33;99608.19;6257397;27;97273;-58
2022/09/05 00:15:39;;;;;;;;;41.40;36.40;;;;;22.61;46.66;99604.66;6243866;27;96904;-55
2022/09/05 00:18:57;;;;;;;;;46.25;39.75;;;;;22.57;46.41;99606.31;6245459;27;96633;-55
2022/09/05 00:22:39;;;;;;;;;39.40;35.40;;;;;22.54;46.69;99601.38;6246951;27;96696;-55
2022/09/05 00:26:16;;;;;;;;;33.60;32.00;;;;;22.49;46.73;99604.16;6244275;27;97449;-55
2022/09/05 00:29:39;;;;;;;;;47.80;41.20;;;;;22.44;46.27;99601.41;6252446;27;97750;-58
2022/09/05 00:33:19;;;;;;;;;30.80;30.20;;;;;22.40;46.36;99600.34;6246527;27;97456;-57
2022/09/05 00:36:33;;;;;;;;;32.40;30.00;;;;;22.34;46.57;99591.31;6262211;27;97387;-58
2022/09/05 00:39:40;;;;;;;;;43.80;37.60;;;;;22.32;46.55;99596.28;6247862;27;96731;-56
2022/09/05 00:42:55;;;;;;;;;47.00;40.50;;;;;22.28;46.55;99594.38;6247312;27;96981;-58
2022/09/05 00:46:02;;;;;;;;;39.20;35.20;;;;;22.22;46.77;99588.06;6256101;27;97436;-56
2022/09/05 00:49:17;;;;;;;;;46.25;39.25;;;;;22.18;46.56;99586.16;6250034;27;97683;-55
2022/09/05 00:52:28;;;;;;;;;41.00;35.25;;;;;22.14;46.95;99590.59;6241709;27;97471;-58
2022/09/05 00:55:40;;;;;;;;;51.20;43.40;;;;;22.08;47.28;99584.28;6243444;27;96876;-54
2022/09/05 00:59:07;;;;;;;;;37.60;34.20;;;;;22.06;47.29;99582.91;6255906;27;97421;-56
2022/09/05 01:02:22;;;;;;;;;46.40;39.40;;;;;21.94;47.00;99580.50;6239952;27;97042;-56
2022/09/05 01:05:42;;;;;;;;;47.00;40.00;;;;;21.96;47.45;99589.25;6250653;27;97743;-55
2022/09/05 01:09:17;;;;;;;;;44.00;38.00;;;;;21.92;47.23;99585.41;6237754;27;98057;-57
2022/09/05 01:12:41;;;;;;;;;35.60;32.60;;;;;21.89;47.42;99585.97;6252503;27;96662;-58
2022/09/05 01:16:02;;;;;;;;;45.00;39.00;;;;;21.86;47.29;99584.56;6247368;27;97174;-57
2022/09/05 01:19:19;;;;;;;;;42.25;37.25;;;;;21.84;47.26;99583.22;6252234;27;96672;-57
2022/09/05 01:22:44;;;;;;;;;52.00;44.20;;;;;21.80;47.01;99582.94;6251604;27;97428;-62
2022/09/05 01:26:04;;;;;;;;;50.00;42.60;;;;;21.78;46.73;99587.91;6249988;27;97491;-57
2022/09/05 01:29:17;;;;;;;;;45.20;38.60;;;;;21.77;46.94;99590.91;6255448;27;97501;-58
2022/09/05 01:32:32;;;;;;;;;45.20;39.00;;;;;21.72;47.34;99590.94;6253546;27;97454;-57
2022/09/05 01:35:57;;;;;;;;;49.60;42.00;;;;;21.71;47.44;99594.75;6244498;27;96826;-55
2022/09/05 01:39:18;;;;;;;;;45.80;39.20;;;;;21.68;47.03;99598.06;6252019;27;97447;-55
2022/09/05 01:42:51;;;;;;;;;39.40;34.60;;;;;21.68;47.01;99595.34;6245923;27;96989;-54
2022/09/05 01:46:08;;;;;;;;;40.80;36.00;;;;;21.67;47.44;99600.00;6245759;27;97355;-58
2022/09/05 01:49:24;;;;;;;;;48.00;40.00;;;;;21.67;46.94;99602.75;6242021;27;97031;-57
2022/09/05 01:52:48;;;;;;;;;51.40;43.00;;;;;21.66;47.10;99606.56;6241027;27;97016;-55
2022/09/05 01:56:33;;;;;;;;;46.00;39.00;;;;;21.64;47.19;99595.06;6241047;27;97006;-55
2022/09/05 01:59:46;;;;;;;;;50.00;42.00;;;;;21.62;46.99;99605.50;6235496;27;96867;-55
2022/09/05 02:03:08;;;;;;;;;51.60;44.00;;;;;21.60;47.07;99604.94;6241683;27;97833;-54
2022/09/05 02:06:33;;;;;;;;;49.00;42.00;;;;;21.57;47.21;99603.56;6245197;27;96772;-56
2022/09/05 02:10:06;;;;;;;;;44.60;38.60;;;;;21.55;46.90;99610.44;6243676;27;96643;-56
2022/09/05 02:13:23;;;;;;;;;46.20;39.60;;;;;21.53;47.03;99598.91;6240523;27;97202;-56
2022/09/05 02:16:40;;;;;;;;;35.60;33.00;;;;;21.47;47.21;99597.28;6242675;27;97990;-55
2022/09/05 02:19:51;;;;;;;;;45.80;39.80;;;;;21.47;47.34;99605.50;6241236;27;96775;-55
2022/09/05 02:23:04;;;;;;;;;47.17;40.33;;;;;21.46;46.86;99601.09;6243390;27;96596;-57
2022/09/05 02:26:33;;;;;;;;;53.00;44.00;;;;;21.46;47.24;99603.84;6245887;27;98162;-57
2022/09/05 02:29:43;;;;;;;;;43.50;38.00;;;;;21.45;47.28;99600.28;6242976;27;97229;-58
2022/09/05 02:33:10;;;;;;;;;40.20;36.00;;;;;21.48;47.79;99604.41;6240840;27;96697;-55
2022/09/05 02:36:28;;;;;;;;;46.75;39.50;;;;;21.48;47.53;99609.91;6247837;27;96600;-55
2022/09/05 02:39:44;;;;;;;;;43.40;38.00;;;;;21.47;47.10;99606.31;6246724;27;97488;-57
2022/09/05 02:43:19;;;;;;;;;47.50;40.50;;;;;21.49;47.15;99609.63;6248333;27;97164;-54
2022/09/05 02:46:55;;;;;;;;;49.80;42.20;;;;;21.50;47.13;99607.72;6236654;27;96937;-58
2022/09/05 02:50:10;;;;;;;;;43.60;37.80;;;;;21.47;46.97;99602.75;6237324;27;99184;-56
2022/09/05 02:53:39;;;;;;;;;38.40;34.80;;;;;21.46;46.89;99609.34;6244646;27;97697;-57
2022/09/05 02:57:28;;;;;;;;;49.33;41.33;;;;;21.48;46.81;99613.47;6235831;27;97150;-57
2022/09/05 03:01:12;;;;;;;;;51.17;43.50;;;;;21.47;47.03;99609.06;6237404;27;96640;-56
2022/09/05 03:04:27;;;;;;;;;46.75;39.75;;;;;21.45;47.44;99605.75;6233887;27;96435;-54
2022/09/05 03:08:05;;;;;;;;;43.00;37.00;;;;;21.46;47.59;99598.34;6235469;27;97184;-55
2022/09/05 03:11:53;;;;;;;;;42.40;36.80;;;;;21.44;47.32;99606.06;6239774;27;97225;-57
2022/09/05 03:15:37;;;;;;;;;44.20;38.60;;;;;21.42;47.16;99609.06;6233950;27;96648;-57
2022/09/05 03:19:16;;;;;;;;;58.00;48.20;;;;;21.40;46.68;99605.78;6239244;27;97815;-54
2022/09/05 03:22:55;;;;;;;;;47.40;40.40;;;;;21.39;47.35;99612.38;6178106;27;97437;-55
2022/09/05 03:26:34;;;;;;;;;45.60;39.00;;;;;21.39;47.33;99614.28;6243306;27;97323;-55
2022/09/05 03:30:02;;;;;;;;;44.60;38.00;;;;;21.39;46.91;99611.56;6175248;27;98403;-54
2022/09/05 03:33:27;;;;;;;;;43.75;38.00;;;;;21.38;46.97;99618.94;6249065;27;98643;-57
2022/09/05 03:37:10;;;;;;;;;38.80;34.60;;;;;21.39;46.74;99611.56;6235081;27;97634;-57
2022/09/05 03:40:35;;;;;;;;;45.17;39.00;;;;;21.37;46.60;99611.00;6238880;27;97918;-56
2022/09/05 03:44:01;;;;;;;;;47.40;40.80;;;;;21.35;46.91;99607.72;6240123;27;97448;-55
2022/09/05 03:47:42;;;;;;;;;48.00;41.20;;;;;21.31;46.75;99615.66;6249974;27;98329;-55
2022/09/05 03:50:59;;;;;;;;;45.80;39.40;;;;;21.30;46.55;99616.75;6231906;27;97565;-55
2022/09/05 03:54:57;;;;;;;;;45.00;39.00;;;;;21.28;46.84;99629.09;6251794;27;97625;-58
2022/09/05 03:58:55;;;;;;;;;50.25;43.00;;;;;21.25;46.56;99629.66;6245419;27;97504;-58
2022/09/05 04:02:03;;;;;;;;;50.67;43.50;;;;;21.25;46.94;99626.91;6249942;27;97491;-55
2022/09/05 04:05:32;;;;;;;;;50.00;42.25;;;;;21.23;46.50;99629.91;6246523;27;96693;-57
2022/09/05 04:09:08;;;;;;;;;37.20;33.20;;;;;21.11;46.76;99610.16;6242293;27;97412;-58
2022/09/05 04:12:17;;;;;;;;;60.67;49.33;;;;;21.23;46.79;99629.91;6240349;27;98519;-58
2022/09/05 04:15:32;;;;;;;;;56.60;47.00;;;;;21.25;47.11;99637.88;6251853;27;97522;-58
2022/09/05 04:18:40;;;;;;;;;52.40;44.00;;;;;21.25;46.80;99635.13;6243938;27;98063;-55
2022/09/05 04:21:50;;;;;;;;;73.50;67.25;;;;;21.17;47.15;99634.56;6241945;27;96827;-57
2022/09/05 04:25:04;;;;;;;;;47.60;40.60;;;;;21.25;46.96;99643.38;6248299;27;96830;-55
2022/09/05 04:28:19;;;;;;;;;57.60;47.20;;;;;21.23;46.98;99657.34;6238641;27;97485;-58
2022/09/05 04:31:35;;;;;;;;;45.60;38.80;;;;;21.25;47.14;99662.56;6243623;27;99082;-55
2022/09/05 04:34:53;;;;;;;;;41.50;36.33;;;;;21.27;46.78;99663.09;6238941;27;96520;-58
2022/09/05 04:38:04;;;;;;;;;51.00;43.20;;;;;21.28;46.75;99667.50;6237701;27;98018;-56
2022/09/05 04:41:11;;;;;;;;;53.50;45.00;;;;;21.28;46.98;99670.22;6244325;27;97555;-57
2022/09/05 04:44:18;;;;;;;;;48.40;41.40;;;;;21.31;46.82;99675.16;6241295;27;97657;-58
2022/09/05 04:47:28;;;;;;;;;60.86;50.57;;;;;21.34;46.70;99674.63;6244064;27;97305;-52
2022/09/05 04:50:35;;;;;;;;;48.00;40.40;;;;;21.35;46.69;99673.53;6239676;27;97084;-58
2022/09/05 04:54:12;;;;;;;;;46.40;39.80;;;;;21.38;46.56;99681.22;6236778;27;96846;-57
2022/09/05 04:57:23;;;;;;;;;57.20;48.00;;;;;21.38;46.42;99690.28;6229117;27;99600;-54
2022/09/05 05:00:33;;;;;;;;;45.75;39.25;;;;;21.39;46.47;99694.66;6244376;27;96947;-57
2022/09/05 05:04:04;;;;;;;;;39.40;34.80;;;;;21.43;46.42;99700.44;6247036;27;97464;-58
2022/09/05 05:07:39;;;;;;;;;47.60;40.60;;;;;21.32;46.87;99682.31;6236294;27;97015;-59
2022/09/05 05:10:49;;;;;;;;;52.00;44.00;;;;;21.56;46.69;99706.19;6247812;27;96750;-56
2022/09/05 05:14:20;;;;;;;;;53.80;45.00;;;;;21.64;46.67;99715.81;6240206;27;96885;-57
2022/09/05 05:17:51;;;;;;;;;50.17;42.17;;;;;21.67;46.13;99719.91;6239946;27;97026;-54
2022/09/05 05:21:17;;;;;;;;;46.00;39.60;;;;;21.73;46.19;99718.84;6247249;27;96750;-55
2022/09/05 05:24:26;;;;;;;;;45.33;38.83;;;;;21.84;46.41;99720.47;6237031;28;97406;-56
2022/09/05 05:27:40;;;;;;;;;40.20;36.00;;;;;21.96;46.09;99716.38;6236306;27;96932;-57
2022/09/05 05:30:45;;;;;;;;;49.75;42.75;;;;;22.06;45.90;99714.72;6237309;27;97842;-56
2022/09/05 05:33:54;;;;;;;;;51.60;44.00;;;;;22.21;45.82;99714.69;6240044;27;97277;-57
2022/09/05 05:37:05;;;;;;;;;47.00;40.00;;;;;22.36;45.40;99717.41;6240614;27;98734;-59
2022/09/05 05:40:19;;;;;;;;;52.80;44.20;;;;;22.46;45.43;99711.88;6236644;27;97405;-57
2022/09/05 05:43:27;;;;;;;;;46.83;40.33;;;;;22.54;44.70;99721.47;6242623;27;97447;-61
2022/09/05 05:46:39;;;;;;;;;64.33;53.33;;;;;22.58;44.80;99720.63;6245100;27;96617;-57
2022/09/05 05:49:57;;;;;;;;;50.60;43.20;;;;;22.64;44.56;99719.50;6237413;28;97136;-58
2022/09/05 05:53:19;;;;;;;;;49.00;42.00;;;;;22.78;44.89;99728.00;6250900;27;96845;-56
2022/09/05 05:57:26;;;;;;;;;44.20;38.00;;;;;22.98;44.49;99729.84;6261923;27;97422;-59
2022/09/05 06:00:50;;;;;;;;;49.60;41.40;;;;;23.12;43.69;99736.38;6262549;27;97433;-59
2022/09/05 06:04:21;;;;;;;;;45.80;39.00;;;;;23.19;43.74;99736.91;6253062;27;96659;-54
2022/09/05 06:07:36;;;;;;;;;42.75;37.25;;;;;23.30;43.73;99744.00;6262589;27;98023;-55
2022/09/05 06:11:33;;;;;;;;;52.67;44.50;;;;;23.46;43.26;99742.81;6259294;27;96622;-55
2022/09/05 06:15:27;;;;;;;;;38.25;35.00;;;;;23.70;43.04;99740.19;6259537;27;96506;-56
2022/09/05 06:18:55;;;;;;;;;48.40;41.20;;;;;23.85;42.83;99745.53;6262538;27;97433;-55
2022/09/05 06:22:28;;;;;;;;;58.20;48.20;;;;;24.00;42.25;99748.16;6250911;27;96929;-59
2022/09/05 06:25:59;;;;;;;;;52.80;44.20;;;;;24.12;41.70;99745.03;6249076;27;97594;-57
2022/09/05 06:29:12;;;;;;;;;51.75;43.75;;;;;24.17;42.21;99750.53;6248578;27;97939;-56
2022/09/05 06:32:46;;;;;;;;;50.00;42.00;;;;;24.33;41.99;99749.28;6258647;27;98040;-56
2022/09/05 06:36:17;;;;;;;;;53.80;45.20;;;;;24.53;41.75;99759.28;6247490;27;98750;-56
2022/09/05 06:39:39;;;;;;;;;44.25;38.00;;;;;24.71;41.37;99771.47;6249953;27;96481;-58
2022/09/05 06:43:20;;;;;;;;;57.00;47.60;;;;;24.64;40.86;99743.41;6256965;27;97126;-59
2022/09/05 06:46:31;;;;;;;;;52.00;44.00;;;;;24.87;40.99;99773.81;6249170;27;97099;-61
2022/09/05 06:50:05;;;;;;;;;49.33;41.50;;;;;24.90;40.93;99775.16;6248935;27;96846;-61
2022/09/05 06:53:54;;;;;;;;;45.60;39.20;;;;;24.93;40.89;99774.53;6250563;27;97039;-57
2022/09/05 06:57:12;;;;;;;;;46.60;39.60;;;;;25.05;40.72;99769.44;6250687;27;97991;-59
2022/09/05 07:00:22;;;;;;;;;52.75;44.50;;;;;25.10;40.57;99782.34;6262000;27;97134;-60
2022/09/05 07:03:36;;;;;;;;;51.20;42.60;;;;;25.16;40.36;99784.75;6258352;27;97432;-57
2022/09/05 07:06:56;;;;;;;;;37.60;34.00;;;;;25.33;40.58;99774.03;6262124;27;97070;-57
2022/09/05 07:10:13;;;;;;;;;45.80;38.00;;;;;25.44;40.10;99770.00;6261850;27;97043;-55
2022/09/05 07:13:44;;;;;;;;;49.80;42.40;;;;;25.58;40.02;99783.09;6250231;27;96730;-62
2022/09/05 07:16:52;;;;;;;;;52.75;44.50;;;;;25.68;39.77;99781.00;6261606;27;97526;-54
2022/09/05 07:19:59;;;;;;;;;44.00;37.60;;;;;25.76;39.34;99782.25;6261331;27;96733;-60
2022/09/05 07:23:16;;;;;;;;;58.00;48.50;;;;;25.82;39.26;99781.88;6249032;27;97403;-60
2022/09/05 07:26:44;;;;;;;;;44.50;38.25;;;;;25.97;39.99;99791.03;6261149;27;98145;-54
2022/09/05 07:30:00;;;;;;;;;46.00;39.00;;;;;26.18;39.34;99773.84;6261831;27;96858;-53
2022/09/05 07:33:06;;;;;;;;;42.00;36.25;;;;;26.43;39.59;99778.13;6260103;27;96914;-57
2022/09/05 07:36:15;;;;;;;;;50.00;41.40;;;;;26.66;38.65;99779.88;6251205;27;96795;-57
2022/09/05 07:39:22;;;;;;;;;55.00;46.40;;;;;26.89;37.72;99780.84;6261220;27;98275;-57
2022/09/05 07:42:38;;;;;;;;;44.60;38.00;;;;;27.04;37.79;99776.94;6259441;27;98257;-56
2022/09/05 07:45:48;;;;;;;;;45.50;38.25;;;;;27.28;38.02;99779.47;6260730;27;97407;-56
2022/09/05 07:49:02;;;;;;;;;42.20;36.20;;;;;27.28;36.75;99744.28;6256014;27;96913;-60
2022/09/05 07:52:12;;;;;;;;;39.80;35.00;;;;;27.54;36.31;99762.00;6245399;27;96994;-61
2022/09/05 07:55:36;;;;;;;;;35.75;32.50;;;;;27.72;36.07;99787.09;6260914;27;96593;-55
2022/09/05 07:59:02;;;;;;;;;42.60;37.20;;;;;27.93;36.79;99783.53;6260110;27;96884;-57
2022/09/05 08:02:11;;;;;;;;;43.00;37.00;;;;;28.11;36.06;99790.03;6251720;27;97150;-59
2022/09/05 08:05:15;;;;;;;;;47.00;40.60;;;;;28.16;35.53;99784.38;6261748;27;96618;-58
2022/09/05 08:08:48;;;;;;;;;50.00;43.00;;;;;28.28;35.71;99797.66;6260932;27;99426;-60
2022/09/05 08:12:17;;;;;;;;;33.50;31.50;;;;;28.33;35.97;99778.94;6240096;27;97566;-60
2022/09/05 08:15:30;;;;;;;;;44.33;38.00;;;;;28.47;35.91;99770.53;6248127;27;96996;-59
2022/09/05 08:19:10;;;;;;;;;41.50;36.25;;;;;28.85;34.90;99791.13;6258868;27;97466;-59
2022/09/05 08:22:20;;;;;;;;;44.40;38.00;;;;;29.12;34.47;99784.53;6249138;27;97498;-60
2022/09/05 08:25:32;;;;;;;;;49.20;41.40;;;;;29.31;33.34;99786.25;6258734;27;98092;-54
2022/09/05 08:29:03;;;;;;;;;39.20;35.40;;;;;29.47;33.26;99784.63;6258985;27;96925;-57
2022/09/05 08:32:10;;;;;;;;;49.00;41.75;;;;;29.61;33.86;99780.56;6251207;27;97464;-53
2022/09/05 08:35:20;;;;;;;;;30.40;30.00;;;;;29.71;33.39;99762.75;6256902;27;97470;-56
2022/09/05 08:38:25;;;;;;;;;39.75;35.75;;;;;29.93;33.11;99747.88;6260538;27;98607;-59
2022/09/05 08:41:53;;;;;;;;;41.25;36.00;;;;;30.29;33.54;99767.78;6264200;27;96611;-56
2022/09/05 08:45:17;;;;;;;;;37.67;34.67;;;;;30.47;32.79;99758.25;6264647;27;97001;-54
2022/09/05 08:49:15;;;;;;;;;32.20;31.20;;;;;30.61;31.32;99757.22;6262491;27;96852;-58
2022/09/05 08:52:52;;;;;;;;;44.00;38.00;;;;;30.74;30.89;99757.00;6255131;27;97146;-58
2022/09/05 08:56:02;;;;;;;;;28.20;28.00;;;;;30.66;30.72;99755.06;6264725;27;97604;-54
2022/09/05 08:59:22;;;;;;;;;42.60;37.40;;;;;30.61;30.06;99748.88;6264595;27;97310;-60
2022/09/05 09:03:02;;;;;;;;;48.20;41.00;;;;;30.57;30.47;99747.91;6258675;27;96595;-54
2022/09/05 09:06:49;;;;;;;;;33.25;31.25;;;;;30.61;31.48;99748.88;6260036;27;97280;-59
2022/09/05 09:10:29;;;;;;;;;34.80;32.20;;;;;30.84;30.56;99744.66;6255790;27;97437;-56
2022/09/05 09:13:50;;;;;;;;;36.20;33.40;;;;;30.96;30.38;99742.81;6255528;27;96780;-58
2022/09/05 09:17:00;;;;;;;;;40.80;35.00;;;;;30.95;29.29;99734.78;6264275;27;96879;-56
2022/09/05 09:20:16;;;;;;;;;39.60;35.60;;;;;30.78;29.60;99713.44;6258768;27;96922;-61
2022/09/05 09:23:42;;;;;;;;;38.40;34.80;;;;;30.95;30.02;99743.97;6238882;27;96896;-58
2022/09/05 09:26:55;;;;;;;;;26.00;25.20;;;;;31.17;30.92;99733.72;6239022;28;97119;-59
2022/09/05 09:30:05;;;;;;;;;48.40;41.40;;;;;31.31;29.49;99737.06;6241037;27;97463;-56
2022/09/05 09:33:16;;;;;;;;;29.00;28.60;;;;;31.31;29.47;99731.47;6238929;27;97451;-59
2022/09/05 09:36:37;;;;;;;;;35.00;32.00;;;;;31.37;30.09;99728.13;6237121;28;96709;-59
2022/09/05 09:40:08;;;;;;;;;35.60;33.00;;;;;31.39;28.83;99733.38;6243381;27;96584;-58
2022/09/05 09:43:21;;;;;;;;;35.60;33.20;;;;;31.50;28.89;99734.59;6228805;27;97417;-59
2022/09/05 09:46:36;;;;;;;;;33.00;31.00;;;;;31.86;29.03;99724.81;6238338;27;96937;-58
2022/09/05 09:50:06;;;;;;;;;26.00;26.00;;;;;32.05;28.23;99712.00;6236615;27;97389;-53
2022/09/05 09:53:39;;;;;;;;;10.40;9.40;;;;;32.42;27.49;99720.47;6253200;27;97437;-61
2022/09/05 09:57:13;;;;;;;;;36.00;33.00;;;;;32.53;27.36;99722.47;6262521;27;97526;-59
2022/09/05 10:00:22;;;;;;;;;38.40;34.60;;;;;32.44;26.84;99709.78;6263573;27;97461;-60
2022/09/05 10:03:54;;;;;;;;;29.75;29.50;;;;;32.53;26.86;99714.09;6257616;27;97419;-62
2022/09/05 10:07:39;;;;;;;;;28.80;27.20;;;;;32.51;26.55;99718.38;6263279;27;97518;-57
2022/09/05 10:11:20;;;;;;;;;41.80;36.80;;;;;32.36;25.55;99716.25;6252900;27;99376;-59
2022/09/05 10:15:00;;;;;;;;;25.00;24.00;;;;;32.09;25.74;99717.69;6261268;27;96929;-60
2022/09/05 10:18:40;;;;;;;;;20.50;20.50;;;;;31.90;26.76;99714.59;6247627;27;97326;-56
2022/09/05 10:22:15;;;;;;;;;35.60;32.60;;;;;31.81;26.92;99703.53;6254237;27;97471;-60
2022/09/05 10:25:57;;;;;;;;;31.80;30.80;;;;;31.89;27.40;99701.81;6262865;27;96574;-58
2022/09/05 10:29:10;;;;;;;;;37.00;33.00;;;;;31.99;27.72;99707.78;6262949;27;97520;-59
2022/09/05 10:32:43;;;;;;;;;47.60;40.80;;;;;32.11;27.33;99705.03;6246078;27;96810;-59
2022/09/05 10:36:25;;;;;;;;;36.00;33.00;;;;;32.19;26.77;99715.31;6251940;27;98214;-59
2022/09/05 10:39:30;;;;;;;;;34.20;32.00;;;;;32.03;26.24;99693.94;6262625;27;96596;-59
2022/09/05 10:42:38;;;;;;;;;40.40;35.40;;;;;31.88;26.45;99695.41;6251945;27;97874;-56
2022/09/05 10:46:14;;;;;;;;;35.40;32.40;;;;;31.80;26.73;99694.34;6262571;27;96843;-59
2022/09/05 10:49:43;;;;;;;;;41.20;36.20;;;;;31.85;26.44;99693.31;6236629;27;97936;-60
2022/09/05 10:53:04;;;;;;;;;30.60;30.00;;;;;31.67;26.72;99672.31;6260548;27;97144;-58
2022/09/05 10:56:13;;;;;;;;;30.00;29.60;;;;;31.55;26.91;99673.09;6262165;27;96459;-63
2022/09/05 10:59:24;;;;;;;;;29.67;29.67;;;;;31.48;27.43;99686.75;6262334;27;97069;-55
2022/09/05 11:02:56;;;;;;;;;36.40;33.60;;;;;31.42;26.89;99686.13;6258598;27;97415;-56
2022/09/05 11:06:05;;;;;;;;;39.60;35.60;;;;;31.47;28.07;99689.88;6255660;27;97573;-58
2022/09/05 11:09:24;;;;;;;;;20.50;20.50;;;;;31.57;27.13;99683.94;6261877;27;97538;-59
2022/09/05 11:12:52;;;;;;;;;35.50;33.00;;;;;31.65;27.14;99680.25;6261163;27;97313;-61
2022/09/05 11:16:10;;;;;;;;;30.40;30.20;;;;;31.63;26.50;99683.34;6255710;27;97357;-59
2022/09/05 11:19:21;;;;;;;;;28.67;28.67;;;;;31.57;26.47;99676.34;6262095;27;97269;-55
2022/09/05 11:22:27;;;;;;;;;30.00;29.00;;;;;31.61;26.17;99676.50;6255497;27;96494;-58
2022/09/05 11:25:35;;;;;;;;;30.40;29.40;;;;;31.76;26.37;99671.13;6250166;27;96424;-59
2022/09/05 11:28:51;;;;;;;;;30.00;29.80;;;;;32.03;26.29;99664.09;6255625;27;97431;-59
2022/09/05 11:32:32;;;;;;;;;33.00;31.75;;;;;32.38;25.12;99670.09;6260050;27;96703;-60
2022/09/05 11:36:01;;;;;;;;;31.00;30.00;;;;;32.45;25.96;99666.75;6242603;27;99698;-58
2022/09/05 11:39:56;;;;;;;;;31.50;30.50;;;;;32.71;25.16;99666.41;6260998;27;97448;-58
2022/09/05 11:43:53;;;;;;;;;22.60;22.60;;;;;33.00;24.49;99666.13;6254720;27;97147;-63
2022/09/05 11:47:50;;;;;;;;;35.00;32.50;;;;;32.99;23.96;99656.13;6261391;27;96676;-59
2022/09/05 11:51:27;;;;;;;;;28.40;28.00;;;;;33.04;23.92;99653.91;6247542;27;97623;-58
2022/09/05 11:55:09;;;;;;;;;31.80;30.20;;;;;33.03;25.07;99657.88;6261524;27;97000;-59
2022/09/05 11:58:45;;;;;;;;;32.00;30.00;;;;;33.10;24.64;99660.88;6260993;27;96947;-60
2022/09/05 12:02:10;;;;;;;;;27.20;27.00;;;;;33.18;24.28;99636.81;6259458;27;98370;-60
2022/09/05 12:06:12;;;;;;;;;28.75;28.75;;;;;33.57;23.50;99651.09;6255795;27;97524;-57
2022/09/05 12:09:30;;;;;;;;;25.80;25.80;;;;;33.72;23.56;99653.16;6209085;27;97446;-60
2022/09/05 12:12:41;;;;;;;;;24.00;24.00;;;;;33.86;23.54;99651.56;6252226;27;96877;-60
2022/09/05 12:15:46;;;;;;;;;25.20;25.20;;;;;33.87;22.97;99646.75;6257935;27;96600;-58
2022/09/05 12:19:31;;;;;;;;;22.60;21.60;;;;;33.70;22.72;99644.31;6265823;27;96625;-59
2022/09/05 12:22:38;;;;;;;;;28.25;27.50;;;;;33.58;22.81;99647.13;6265446;27;96580;-56
2022/09/05 12:25:56;;;;;;;;;29.25;29.25;;;;;33.50;23.13;99641.34;6262362;27;96805;-56
2022/09/05 12:29:23;;;;;;;;;45.20;39.20;;;;;33.22;22.85;99640.53;6254672;27;97421;-55
2022/09/05 12:32:49;;;;;;;;;38.75;35.00;;;;;32.79;23.23;99641.16;6254781;27;97539;-57
2022/09/05 12:36:21;;;;;;;;;18.00;18.00;;;;;32.62;24.22;99633.00;6262305;27;96846;-58
2022/09/05 12:39:47;;;;;;;;;37.00;33.80;;;;;32.73;24.31;99636.16;6256332;27;97494;-55
2022/09/05 12:43:12;;;;;;;;;40.80;35.80;;;;;32.83;23.90;99625.34;6265217;27;96687;-55
2022/09/05 12:46:49;;;;;;;;;38.60;34.80;;;;;32.62;22.99;99611.47;6264442;27;96561;-58
2022/09/05 12:50:00;;;;;;;;;17.00;17.00;;;;;32.50;23.18;99617.06;6252520;27;97521;-59
2022/09/05 12:53:19;;;;;;;;;46.67;39.67;;;;;32.38;23.18;99614.28;6251806;27;96791;-57
2022/09/05 12:56:31;;;;;;;;;50.60;43.20;;;;;32.27;23.06;99615.91;6263671;27;97501;-57
2022/09/05 12:59:57;;;;;;;;;39.80;35.80;;;;;32.11;23.61;99604.59;6264359;27;96888;-54
2022/09/05 13:03:27;;;;;;;;;45.20;39.00;;;;;32.13;23.44;99615.44;6261151;27;96770;-61
2022/09/05 13:06:37;;;;;;;;;31.25;30.00;;;;;32.08;23.29;99604.47;6265314;27;97100;-59
2022/09/05 13:09:47;;;;;;;;;48.60;41.40;;;;;32.04;24.25;99598.78;6267250;27;97446;-58
2022/09/05 13:13:14;;;;;;;;;45.00;39.00;;;;;32.09;24.94;99603.31;6250139;27;97400;-59
2022/09/05 13:16:42;;;;;;;;;44.60;38.00;;;;;32.18;24.58;99604.03;6237849;27;97443;-55
2022/09/05 13:19:51;;;;;;;;;28.00;26.25;;;;;32.31;24.04;99604.84;6237950;27;97458;-59
2022/09/05 13:22:54;;;;;;;;;33.25;31.25;;;;;32.34;23.95;99599.41;6246968;27;97207;-61
2022/09/05 13:26:07;;;;;;;;;36.25;33.00;;;;;32.33;24.21;99594.97;6237167;27;97124;-55
2022/09/05 13:29:16;;;;;;;;;43.40;38.00;;;;;32.12;24.19;99583.09;6240001;27;97518;-60
2022/09/05 13:32:29;;;;;;;;;37.60;32.80;;;;;32.08;24.93;99594.13;6236686;27;97113;-59
2022/09/05 13:36:04;;;;;;;;;37.20;34.00;;;;;32.11;24.58;99593.44;6245863;27;97164;-59
2022/09/05 13:39:38;;;;;;;;;38.40;35.00;;;;;32.02;25.06;99591.91;6252191;27;98825;-52
2022/09/05 13:42:55;;;;;;;;;44.20;37.20;;;;;32.15;24.59;99594.41;6251870;27;97038;-59
2022/09/05 13:46:10;;;;;;;;;40.40;36.00;;;;;32.17;24.46;99594.03;6247581;27;97451;-56
2022/09/05 13:49:22;;;;;;;;;23.20;23.20;;;;;32.23;24.69;99595.44;6235394;27;97112;-61
2022/09/05 13:52:36;;;;;;;;;34.00;32.00;;;;;32.28;24.42;99589.63;6251402;27;97458;-55
2022/09/05 13:55:44;;;;;;;;;14.25;14.25;;;;;32.32;24.18;99595.31;6253198;27;97439;-60
2022/09/05 13:58:52;;;;;;;;;33.00;32.00;;;;;32.27;24.60;99585.22;6234480;27;96880;-55
2022/09/05 14:02:26;;;;;;;;;24.75;24.75;;;;;32.14;24.21;99595.56;6241242;27;97560;-54
2022/09/05 14:05:38;;;;;;;;;28.50;27.50;;;;;32.15;23.90;99591.63;6241500;27;97402;-58
2022/09/05 14:09:02;;;;;;;;;49.00;41.00;;;;;32.07;23.73;99586.91;6242958;27;97105;-55
2022/09/05 14:12:35;;;;;;;;;38.80;35.00;;;;;31.98;23.72;99583.41;6239097;27;97506;-54
2022/09/05 14:15:47;;;;;;;;;30.60;30.00;;;;;31.94;23.73;99585.28;6237222;27;97305;-57
2022/09/05 14:22:35;;;;;;;;;45.00;39.00;;;;;31.82;23.94;99586.06;6239718;27;97459;-55
2022/09/05 14:25:43;;;;;;;;;40.20;35.80;;;;;31.74;23.91;99575.84;6245784;27;97418;-58
2022/09/05 14:29:01;;;;;;;;;44.60;38.80;;;;;31.62;23.09;99577.78;6244518;27;97424;-58
2022/09/05 14:32:35;;;;;;;;;46.40;40.00;;;;;31.47;23.59;99579.22;6240966;27;97496;-63
2022/09/05 14:36:06;;;;;;;;;33.25;32.00;;;;;31.35;24.75;99560.47;6248291;27;96595;-54
2022/09/05 14:40:04;;;;;;;;;45.40;39.00;;;;;31.28;24.50;99560.22;6239172;27;97577;-55
2022/09/05 14:43:48;;;;;;;;;49.40;42.40;;;;;31.24;24.74;99558.44;6237146;27;96625;-55
2022/09/05 14:47:25;;;;;;;;;49.40;41.80;;;;;31.19;24.77;99556.69;6236827;27;97431;-58
2022/09/05 14:51:02;;;;;;;;;37.50;34.25;;;;;31.15;24.71;99552.16;6238470;27;96944;-59
2022/09/05 14:54:12;;;;;;;;;46.00;40.00;;;;;31.05;24.31;99547.00;6255520;27;97387;-57
2022/09/05 14:57:42;;;;;;;;;36.80;33.80;;;;;30.96;24.01;99558.19;6260451;27;97435;-61
2022/09/05 15:01:11;;;;;;;;;38.33;34.33;;;;;30.84;23.85;99556.16;6250640;27;97553;-57
2022/09/05 15:04:42;;;;;;;;;29.20;28.00;;;;;30.73;24.03;99543.81;6246748;27;97859;-59
2022/09/05 15:07:48;;;;;;;;;35.40;33.00;;;;;30.71;24.93;99543.31;6241859;27;96842;-60
2022/09/05 15:10:54;;;;;;;;;40.50;36.00;;;;;30.69;24.80;99547.63;6243019;27;97159;-56
2022/09/05 15:14:26;;;;;;;;;36.00;33.00;;;;;30.69;25.19;99544.81;6245135;27;97897;-55
2022/09/05 15:17:31;;;;;;;;;39.00;35.00;;;;;30.71;24.51;99534.97;6235994;27;97017;-56
2022/09/05 15:20:38;;;;;;;;;39.60;35.00;;;;;30.69;25.00;99536.47;6236441;27;97489;-57
2022/09/05 15:23:42;;;;;;;;;42.60;37.20;;;;;30.61;24.83;99529.00;6247943;27;97480;-54
2022/09/05 15:26:51;;;;;;;;;40.25;35.50;;;;;30.58;24.79;99526.91;6245640;27;97557;-55
2022/09/05 15:30:00;;;;;;;;;37.75;34.50;;;;;30.52;24.56;99535.44;6240805;27;97416;-57
2022/09/05 15:33:14;;;;;;;;;38.25;33.25;;;;;30.40;24.81;99537.28;6244783;27;97480;-56
2022/09/05 15:36:31;;;;;;;;;50.40;43.00;;;;;30.25;25.18;99538.69;6237269;27;97102;-54